createdAt,value
2019-04-28T00:02:03.456Z,11.20
2019-04-28T00:04:32.011Z,11.30
2019-04-28T00:07:01.770Z,11.30
2019-04-28T00:09:51.152Z,11.30
2019-04-28T00:12:21.036Z,11.20
2019-04-28T00:14:51.632Z,11.20
2019-04-28T00:17:21.086Z,11.20
2019-04-28T00:19:51.469Z,11.20
2019-04-28T00:22:26.921Z,11.20
2019-04-28T00:25:01.468Z,11.30
2019-04-28T00:27:31.491Z,11.30
2019-04-28T00:30:01.958Z,11.20
2019-04-28T00:32:32.337Z,11.20
2019-04-28T00:35:02.343Z,11.20
2019-04-28T00:37:32.276Z,11.20
2019-04-28T00:40:01.274Z,11.20
2019-04-28T00:42:31.510Z,11.30
2019-04-28T00:45:01.665Z,11.40
2019-04-28T00:47:31.214Z,11.40
2019-04-28T00:50:02.139Z,11.30
2019-04-28T00:52:31.984Z,11.30
2019-04-28T00:55:01.239Z,11.20
2019-04-28T00:57:31.018Z,11.30
2019-04-28T01:00:02.096Z,11.30
2019-04-28T01:02:38.044Z,11.40
2019-04-28T01:05:08.513Z,11.50
2019-04-28T01:07:37.284Z,11.50
2019-04-28T01:10:06.952Z,11.30
2019-04-28T01:12:36.035Z,11.20
2019-04-28T01:15:10.128Z,11.30
2019-04-28T01:17:56.035Z,11.30
2019-04-28T01:20:25.715Z,11.10
2019-04-28T01:22:54.282Z,11.20
2019-04-28T01:25:23.017Z,11.20
2019-04-28T01:27:53.320Z,11.30
2019-04-28T01:30:27.840Z,11.30
2019-04-28T01:33:12.900Z,11.20
2019-04-28T01:35:41.586Z,11.20
2019-04-28T01:38:12.276Z,11.10
2019-04-28T01:40:41.375Z,11.00
2019-04-28T01:43:10.119Z,11.00
2019-04-28T01:45:39.894Z,11.00
2019-04-28T01:48:10.039Z,11.00
2019-04-28T01:50:40.002Z,11.10
2019-04-28T01:53:09.701Z,11.10
2019-04-28T01:55:39.325Z,11.10
2019-04-28T01:58:09.566Z,11.10
2019-04-28T02:00:40.518Z,11.20
2019-04-28T02:03:10.365Z,11.10
2019-04-28T02:05:40.522Z,11.00
2019-04-28T02:08:12.315Z,11.10
2019-04-28T02:10:40.863Z,11.00
2019-04-28T02:13:09.613Z,11.00
2019-04-28T02:15:40.080Z,11.10
2019-04-28T02:18:09.965Z,11.00
2019-04-28T02:20:40.591Z,11.10
2019-04-28T02:23:10.906Z,11.10
2019-04-28T02:25:39.944Z,11.20
2019-04-28T02:28:09.411Z,11.30
2019-04-28T02:30:45.468Z,11.20
2019-04-28T02:33:11.165Z,11.30
2019-04-28T02:35:41.873Z,11.30
2019-04-28T02:38:11.527Z,11.40
2019-04-28T02:40:40.731Z,11.30
2019-04-28T02:43:11.426Z,11.20
2019-04-28T02:45:41.302Z,11.20
2019-04-28T02:48:11.956Z,11.20
2019-04-28T02:50:42.126Z,11.10
2019-04-28T02:53:20.865Z,11.00
2019-04-28T02:55:51.235Z,11.00
2019-04-28T02:58:22.285Z,10.90
2019-04-28T03:01:02.724Z,11.00
2019-04-28T03:03:21.081Z,11.20
2019-04-28T03:05:51.223Z,11.30
2019-04-28T03:08:21.448Z,11.20
2019-04-28T03:11:00.912Z,11.20
2019-04-28T03:13:31.115Z,11.30
2019-04-28T03:16:01.528Z,11.30
2019-04-28T03:18:31.688Z,11.30
2019-04-28T03:21:03.481Z,11.30
2019-04-28T03:23:31.453Z,11.10
2019-04-28T03:26:04.184Z,11.20
2019-04-28T03:28:34.479Z,11.10
2019-04-28T03:31:36.720Z,11.00
2019-04-28T03:33:48.013Z,11.10
2019-04-28T03:36:15.458Z,11.00
2019-04-28T03:38:42.106Z,11.20
2019-04-28T03:41:11.350Z,11.30
2019-04-28T03:43:40.702Z,11.20
2019-04-28T03:46:14.243Z,11.20
2019-04-28T03:48:42.848Z,11.20
2019-04-28T03:51:13.456Z,11.20
2019-04-28T03:53:41.758Z,11.30
2019-04-28T03:56:11.370Z,11.40
2019-04-28T03:58:40.765Z,11.30
2019-04-28T04:01:10.755Z,11.30
2019-04-28T04:03:41.739Z,11.40
2019-04-28T04:06:10.588Z,11.50
2019-04-28T04:08:40.750Z,11.50
2019-04-28T04:11:11.327Z,11.50
2019-04-28T04:13:41.841Z,11.60
2019-04-28T04:16:24.109Z,11.60
2019-04-28T04:18:54.341Z,11.50
2019-04-28T04:21:22.966Z,11.50
2019-04-28T04:23:51.703Z,11.30
2019-04-28T04:26:21.242Z,11.40
2019-04-28T04:28:51.527Z,11.60
2019-04-28T04:31:20.423Z,11.50
2019-04-28T04:33:50.610Z,11.40
2019-04-28T04:36:21.176Z,11.40
2019-04-28T04:38:51.271Z,11.50
2019-04-28T04:41:42.910Z,11.60
2019-04-28T04:44:11.169Z,11.60
2019-04-28T04:46:41.492Z,11.40
2019-04-28T04:49:10.783Z,11.40
2019-04-28T04:51:40.718Z,11.50
2019-04-28T04:54:10.871Z,11.50
2019-04-28T04:56:40.236Z,11.60
2019-04-28T04:59:10.224Z,11.60
2019-04-28T05:01:46.783Z,11.50
2019-04-28T05:04:22.534Z,11.60
2019-04-28T05:06:51.085Z,11.50
2019-04-28T05:09:19.774Z,11.60
2019-04-28T05:11:49.926Z,11.50
2019-04-28T05:14:19.817Z,11.60
2019-04-28T05:16:49.742Z,11.50
2019-04-28T05:19:19.917Z,11.40
2019-04-28T05:21:49.887Z,11.50
2019-04-28T05:24:26.330Z,11.50
2019-04-28T05:26:54.953Z,11.60
2019-04-28T05:29:26.941Z,11.50
2019-04-28T05:31:54.955Z,11.40
2019-04-28T05:34:24.574Z,11.50
2019-04-28T05:36:53.446Z,11.40
2019-04-28T05:39:22.285Z,11.50
2019-04-28T05:41:50.830Z,11.60
2019-04-28T05:44:20.163Z,11.70
2019-04-28T05:46:50.693Z,11.60
2019-04-28T05:49:33.199Z,11.70
2019-04-28T05:52:20.037Z,11.70
2019-04-28T05:54:50.398Z,11.60
2019-04-28T05:57:31.299Z,11.40
2019-04-28T06:00:07.451Z,11.50
2019-04-28T06:02:39.551Z,11.50
2019-04-28T06:05:09.995Z,11.60
2019-04-28T06:07:54.571Z,11.70
2019-04-28T06:10:23.178Z,11.80
2019-04-28T06:12:51.897Z,11.80
2019-04-28T06:15:20.551Z,11.90
2019-04-28T06:17:49.855Z,11.80
2019-04-28T06:20:20.165Z,11.80
2019-04-28T06:22:49.069Z,11.80
2019-04-28T06:25:17.635Z,11.90
2019-04-28T06:27:46.286Z,11.90
2019-04-28T06:30:15.285Z,12.00
2019-04-28T06:32:44.204Z,12.00
2019-04-28T06:35:13.180Z,12.10
2019-04-28T06:37:41.734Z,12.10
2019-04-28T06:40:10.568Z,12.10
2019-04-28T06:42:39.346Z,12.20
2019-04-28T06:45:28.786Z,12.30
2019-04-28T06:47:57.387Z,12.40
2019-04-28T06:50:25.935Z,12.50
2019-04-28T06:52:54.724Z,12.60
2019-04-28T06:55:23.304Z,12.60
2019-04-28T06:57:52.082Z,12.70
2019-04-28T07:00:20.681Z,12.70
2019-04-28T07:02:49.458Z,12.80
2019-04-28T07:05:18.055Z,12.80
2019-04-28T07:07:46.670Z,12.90
2019-04-28T07:10:15.431Z,13.00
2019-04-28T07:12:44.339Z,13.20
2019-04-28T07:15:13.028Z,13.30
2019-04-28T07:17:41.570Z,13.50
2019-04-28T07:20:28.553Z,13.70
2019-04-28T07:22:57.186Z,13.80
2019-04-28T07:25:25.842Z,13.80
2019-04-28T07:27:54.903Z,13.80
2019-04-28T07:30:24.258Z,13.90
2019-04-28T07:32:53.084Z,13.90
2019-04-28T07:35:21.847Z,13.80
2019-04-28T07:37:50.439Z,13.70
2019-04-28T07:40:19.138Z,13.60
2019-04-28T07:42:47.742Z,13.60
2019-04-28T07:45:16.511Z,13.60
2019-04-28T07:47:45.103Z,13.60
2019-04-28T07:50:14.684Z,13.60
2019-04-28T07:52:44.879Z,13.60
2019-04-28T07:55:13.527Z,13.60
2019-04-28T07:57:42.075Z,13.50
2019-04-28T08:00:13.187Z,13.40
2019-04-28T08:02:42.033Z,13.40
2019-04-28T08:05:11.176Z,13.30
2019-04-28T08:07:39.927Z,13.40
2019-04-28T08:10:09.450Z,13.50
2019-04-28T08:12:38.000Z,13.60
2019-04-28T08:15:06.833Z,13.70
2019-04-28T08:17:35.453Z,13.90
2019-04-28T08:20:05.843Z,14.10
2019-04-28T08:22:34.466Z,14.10
2019-04-28T08:25:04.238Z,14.10
2019-04-28T08:27:32.786Z,14.00
2019-04-28T08:30:01.375Z,14.00
2019-04-28T08:32:49.769Z,14.10
2019-04-28T08:35:18.478Z,14.00
2019-04-28T08:37:47.063Z,13.90
2019-04-28T08:40:15.795Z,13.80
2019-04-28T08:42:44.490Z,13.90
2019-04-28T08:45:14.486Z,13.90
2019-04-28T08:47:43.070Z,14.00
2019-04-28T08:50:12.600Z,14.10
2019-04-28T08:52:41.383Z,14.20
2019-04-28T08:55:10.100Z,14.30
2019-04-28T08:57:38.674Z,14.40
2019-04-28T09:00:10.367Z,14.40
2019-04-28T09:02:39.151Z,14.50
2019-04-28T09:05:08.124Z,14.50
2019-04-28T09:07:36.751Z,14.40
2019-04-28T09:10:07.394Z,14.40
2019-04-28T09:12:36.003Z,14.40
2019-04-28T09:15:06.869Z,14.40
2019-04-28T09:17:37.056Z,14.40
2019-04-28T09:20:07.255Z,14.20
2019-04-28T09:22:35.810Z,14.10
2019-04-28T09:25:06.547Z,14.10
2019-04-28T09:27:35.113Z,14.10
2019-04-28T09:30:05.783Z,14.00
2019-04-28T09:32:34.500Z,14.00
2019-04-28T09:35:04.891Z,13.80
2019-04-28T09:37:33.492Z,13.80
2019-04-28T09:40:04.223Z,13.80
2019-04-28T09:42:34.468Z,13.80
2019-04-28T09:45:04.836Z,13.80
2019-04-28T09:47:33.380Z,13.80
2019-04-28T09:50:02.111Z,13.80
2019-04-28T09:52:30.682Z,13.80
2019-04-28T09:54:59.349Z,13.80
2019-04-28T09:57:28.006Z,13.80
2019-04-28T09:59:56.620Z,13.70
2019-04-28T10:02:25.230Z,13.60
2019-04-28T10:04:53.815Z,13.40
2019-04-28T10:07:22.580Z,13.40
2019-04-28T10:09:51.211Z,13.40
2019-04-28T10:12:26.937Z,13.40
2019-04-28T10:14:50.329Z,13.40
2019-04-28T10:17:18.990Z,13.40
2019-04-28T10:19:47.679Z,13.40
2019-04-28T10:22:16.522Z,13.40
2019-04-28T10:24:45.198Z,13.40
2019-04-28T10:27:13.821Z,13.40
2019-04-28T10:29:42.587Z,13.30
2019-04-28T10:32:11.455Z,13.20
2019-04-28T10:34:40.124Z,13.20
2019-04-28T10:37:08.953Z,13.20
2019-04-28T10:39:39.547Z,13.20
2019-04-28T10:42:08.066Z,13.30
2019-04-28T10:44:38.294Z,13.30
2019-04-28T10:47:07.940Z,13.40
2019-04-28T10:49:36.608Z,13.60
2019-04-28T10:52:05.231Z,13.80
2019-04-28T10:54:33.874Z,13.80
2019-04-28T10:57:02.607Z,13.80
2019-04-28T10:59:31.433Z,13.60
2019-04-28T11:02:00.002Z,13.70
2019-04-28T11:04:39.328Z,13.70
2019-04-28T11:07:10.228Z,13.80
2019-04-28T11:09:43.800Z,13.90
2019-04-28T11:12:17.479Z,13.90
2019-04-28T11:14:46.478Z,14.00
2019-04-28T11:17:16.706Z,14.10
2019-04-28T11:19:45.320Z,14.30
2019-04-28T11:22:14.247Z,14.40
2019-04-28T11:24:43.016Z,14.40
2019-04-28T11:27:12.422Z,14.50
2019-04-28T11:29:41.159Z,14.60
2019-04-28T11:32:11.713Z,14.60
2019-04-28T11:34:45.215Z,14.50
2019-04-28T11:37:14.564Z,14.40
2019-04-28T11:39:45.034Z,14.40
2019-04-28T11:42:13.651Z,14.40
2019-04-28T11:44:42.476Z,14.60
2019-04-28T11:47:12.687Z,14.50
2019-04-28T11:49:41.940Z,14.40
2019-04-28T11:52:10.886Z,14.50
2019-04-28T11:54:39.466Z,14.60
2019-04-28T11:57:08.118Z,14.70
2019-04-28T11:59:36.813Z,14.80
2019-04-28T12:02:08.200Z,14.90
2019-04-28T12:04:36.940Z,15.00
2019-04-28T12:07:07.611Z,14.90
2019-04-28T12:10:04.949Z,14.90
2019-04-28T12:12:27.550Z,14.90
2019-04-28T12:14:57.925Z,14.80
2019-04-28T12:17:44.268Z,14.80
2019-04-28T12:20:17.497Z,14.70
2019-04-28T12:22:46.043Z,14.60
2019-04-28T12:25:14.981Z,14.60
2019-04-28T12:27:43.532Z,14.50
2019-04-28T12:30:13.330Z,14.60
2019-04-28T12:33:01.266Z,14.50
2019-04-28T12:35:29.931Z,14.30
2019-04-28T12:37:58.678Z,14.30
2019-04-28T12:40:27.243Z,14.40
2019-04-28T12:42:55.915Z,14.50
2019-04-28T12:45:35.180Z,14.50
2019-04-28T12:48:00.375Z,14.70
2019-04-28T12:50:45.803Z,14.70
2019-04-28T12:53:14.551Z,14.70
2019-04-28T12:55:43.100Z,14.70
2019-04-28T12:58:12.708Z,14.90
2019-04-28T13:00:49.032Z,15.00
2019-04-28T13:03:21.918Z,14.70
2019-04-28T13:06:01.454Z,14.60
2019-04-28T13:08:22.538Z,14.50
2019-04-28T13:10:51.251Z,14.50
2019-04-28T13:13:22.482Z,14.60
2019-04-28T13:15:51.495Z,14.60
2019-04-28T13:18:20.179Z,14.90
2019-04-28T13:20:48.991Z,15.00
2019-04-28T13:23:17.583Z,15.10
2019-04-28T13:25:46.363Z,15.20
2019-04-28T13:28:15.102Z,15.30
2019-04-28T13:30:43.949Z,15.30
2019-04-28T13:33:12.631Z,15.30
2019-04-28T13:35:41.293Z,15.40
2019-04-28T13:38:10.183Z,15.40
2019-04-28T13:40:40.411Z,15.40
2019-04-28T13:43:09.042Z,15.40
2019-04-28T13:45:38.113Z,15.30
2019-04-28T13:48:06.812Z,15.20
2019-04-28T13:50:36.877Z,15.20
2019-04-28T13:53:06.730Z,15.20
2019-04-28T13:55:43.047Z,15.30
2019-04-28T13:58:11.811Z,15.20
2019-04-28T14:00:57.201Z,15.20
2019-04-28T14:03:43.920Z,15.20
2019-04-28T14:06:27.325Z,15.20
2019-04-28T14:08:44.770Z,15.10
2019-04-28T14:11:13.895Z,15.10
2019-04-28T14:13:42.698Z,15.30
2019-04-28T14:16:11.382Z,15.40
2019-04-28T14:18:40.002Z,15.30
2019-04-28T14:21:08.678Z,15.30
2019-04-28T14:23:37.300Z,15.40
2019-04-28T14:26:06.147Z,15.40
2019-04-28T14:28:37.964Z,15.40
2019-04-28T14:31:10.046Z,15.40
2019-04-28T14:33:38.290Z,15.50
2019-04-28T14:36:07.251Z,15.40
2019-04-28T14:38:35.938Z,15.40
2019-04-28T14:41:04.641Z,15.60
2019-04-28T14:43:33.210Z,15.40
2019-04-28T14:46:01.997Z,15.50
2019-04-28T14:48:32.216Z,15.50
2019-04-28T14:51:00.882Z,15.70
2019-04-28T14:53:29.945Z,15.90
2019-04-28T14:55:58.860Z,16.00
2019-04-28T14:58:27.651Z,15.70
2019-04-28T15:01:06.824Z,15.80
2019-04-28T15:03:52.137Z,15.90
2019-04-28T15:06:27.011Z,15.80
2019-04-28T15:08:58.234Z,15.80
2019-04-28T15:11:31.060Z,15.80
2019-04-28T15:13:59.752Z,15.80
2019-04-28T15:16:28.579Z,15.60
2019-04-28T15:18:57.404Z,15.50
2019-04-28T15:21:26.350Z,15.60
2019-04-28T15:23:54.838Z,15.60
2019-04-28T15:26:23.427Z,15.70
2019-04-28T15:28:52.046Z,15.70
2019-04-28T15:31:20.706Z,15.70
2019-04-28T15:33:49.388Z,15.70
2019-04-28T15:36:18.023Z,15.80
2019-04-28T15:38:46.648Z,15.80
2019-04-28T15:41:21.681Z,15.70
2019-04-28T15:43:46.899Z,15.80
2019-04-28T15:46:15.472Z,15.80
2019-04-28T15:48:44.056Z,15.80
2019-04-28T15:51:12.690Z,15.80
2019-04-28T15:53:41.354Z,15.70
2019-04-28T15:56:26.595Z,15.70
2019-04-28T15:58:56.835Z,15.70
2019-04-28T16:01:27.154Z,15.60
2019-04-28T16:03:55.816Z,15.60
2019-04-28T16:06:25.294Z,15.60
2019-04-28T16:08:54.011Z,15.50
2019-04-28T16:11:22.746Z,15.60
2019-04-28T16:13:51.450Z,15.50
2019-04-28T16:16:20.089Z,15.60
2019-04-28T16:18:48.704Z,15.60
2019-04-28T16:21:17.855Z,15.50
2019-04-28T16:23:46.589Z,15.40
2019-04-28T16:26:15.741Z,15.50
2019-04-28T16:28:44.359Z,15.30
2019-04-28T16:31:13.058Z,15.30
2019-04-28T16:33:41.722Z,15.40
2019-04-28T16:36:10.479Z,15.30
2019-04-28T16:38:39.042Z,15.30
2019-04-28T16:41:07.628Z,15.40
2019-04-28T16:43:36.334Z,15.50
2019-04-28T16:46:05.169Z,15.60
2019-04-28T16:48:33.902Z,15.50
2019-04-28T16:51:02.471Z,15.60
2019-04-28T16:53:31.108Z,15.70
2019-04-28T16:56:01.587Z,15.60
2019-04-28T16:58:34.826Z,15.60
2019-04-28T17:01:21.625Z,15.40
2019-04-28T17:03:50.317Z,15.40
2019-04-28T17:06:19.022Z,15.30
2019-04-28T17:08:47.592Z,15.40
2019-04-28T17:11:16.522Z,15.50
2019-04-28T17:13:45.090Z,15.40
2019-04-28T17:16:13.684Z,15.30
2019-04-28T17:18:42.332Z,15.20
2019-04-28T17:21:12.879Z,15.10
2019-04-28T17:23:41.154Z,15.10
2019-04-28T17:26:11.367Z,15.10
2019-04-28T17:28:40.286Z,15.10
2019-04-28T17:31:09.298Z,15.00
2019-04-28T17:33:37.931Z,15.00
2019-04-28T17:36:06.733Z,15.00
2019-04-28T17:38:36.882Z,15.00
2019-04-28T17:41:05.470Z,15.00
2019-04-28T17:43:42.760Z,15.10
2019-04-28T17:46:11.689Z,15.10
2019-04-28T17:48:50.966Z,14.90
2019-04-28T17:51:19.976Z,14.90
2019-04-28T17:53:48.571Z,14.90
2019-04-28T17:56:17.288Z,15.00
2019-04-28T17:58:46.344Z,15.00
2019-04-28T18:01:16.536Z,15.10
2019-04-28T18:03:46.836Z,15.20
2019-04-28T18:06:20.023Z,15.20
2019-04-28T18:08:48.640Z,15.20
2019-04-28T18:11:17.533Z,15.00
2019-04-28T18:13:46.081Z,15.00
2019-04-28T18:16:19.291Z,15.20
2019-04-28T18:18:49.527Z,15.20
2019-04-28T18:21:18.182Z,15.20
2019-04-28T18:23:46.871Z,15.10
2019-04-28T18:26:15.588Z,15.10
2019-04-28T18:28:44.552Z,15.00
2019-04-28T18:31:14.910Z,14.90
2019-04-28T18:34:02.640Z,15.00
2019-04-28T18:36:32.962Z,14.90
2019-04-28T18:39:19.814Z,14.80
2019-04-28T18:42:06.443Z,14.80
2019-04-28T18:44:36.958Z,14.70
2019-04-28T18:47:05.645Z,14.60
2019-04-28T18:49:34.387Z,14.70
2019-04-28T18:52:03.250Z,14.70
2019-04-28T18:54:31.961Z,14.60
2019-04-28T18:57:00.549Z,14.60
2019-04-28T18:59:29.193Z,14.60
2019-04-28T19:02:05.434Z,14.60
2019-04-28T19:04:34.092Z,14.70
2019-04-28T19:07:05.135Z,14.70
2019-04-28T19:09:35.767Z,14.70
2019-04-28T19:12:12.218Z,14.70
2019-04-28T19:14:51.569Z,14.60
2019-04-28T19:17:30.876Z,14.70
2019-04-28T19:19:59.832Z,14.70
2019-04-28T19:22:28.504Z,14.70
2019-04-28T19:24:57.122Z,14.70
2019-04-28T19:27:25.736Z,14.60
2019-04-28T19:29:54.316Z,14.50
2019-04-28T19:32:22.980Z,14.40
2019-04-28T19:34:51.541Z,14.40
2019-04-28T19:37:20.210Z,14.40
2019-04-28T19:39:48.777Z,14.30
2019-04-28T19:42:17.478Z,14.20
2019-04-28T19:44:46.082Z,14.20
2019-04-28T19:47:14.822Z,14.20
2019-04-28T19:49:43.553Z,14.20
2019-04-28T19:52:12.115Z,14.10
2019-04-28T19:54:42.382Z,14.30
2019-04-28T19:57:15.602Z,14.20
2019-04-28T20:00:02.027Z,14.40
2019-04-28T20:02:32.329Z,14.30
2019-04-28T20:05:01.070Z,14.20
2019-04-28T20:07:29.622Z,14.10
2019-04-28T20:09:58.412Z,14.20
2019-04-28T20:12:27.000Z,14.30
2019-04-28T20:14:55.559Z,14.30
2019-04-28T20:17:24.267Z,14.30
2019-04-28T20:19:52.987Z,14.40
2019-04-28T20:22:21.658Z,14.40
2019-04-28T20:24:50.346Z,14.40
2019-04-28T20:27:19.063Z,14.30
2019-04-28T20:29:47.810Z,14.20
2019-04-28T20:32:16.502Z,14.00
2019-04-28T20:34:45.342Z,13.90
2019-04-28T20:37:15.610Z,13.80
2019-04-28T20:39:45.943Z,13.70
2019-04-28T20:42:32.438Z,13.70
2019-04-28T20:45:02.162Z,13.40
2019-04-28T20:47:30.731Z,13.50
2019-04-28T20:49:59.668Z,13.70
2019-04-28T20:52:28.161Z,13.90
2019-04-28T20:54:56.758Z,13.90
2019-04-28T20:57:25.488Z,14.00
2019-04-28T20:59:54.174Z,13.90
2019-04-28T21:02:22.835Z,13.80
2019-04-28T21:04:51.450Z,13.80
2019-04-28T21:07:20.465Z,13.70
2019-04-28T21:09:49.152Z,13.80
2019-04-28T21:12:17.704Z,13.90
2019-04-28T21:14:46.525Z,13.90
2019-04-28T21:17:15.262Z,14.00
2019-04-28T21:19:43.866Z,13.90
2019-04-28T21:22:12.583Z,14.00
2019-04-28T21:24:42.730Z,14.00
2019-04-28T21:27:11.522Z,13.90
2019-04-28T21:29:40.185Z,13.90
2019-04-28T21:32:08.895Z,13.80
2019-04-28T21:34:37.516Z,13.70
2019-04-28T21:37:06.240Z,13.70
2019-04-28T21:39:34.954Z,13.70
2019-04-28T21:42:05.222Z,13.70
2019-04-28T21:44:50.504Z,13.60
2019-04-28T21:47:20.916Z,13.60
2019-04-28T21:49:49.601Z,13.60
2019-04-28T21:52:18.272Z,13.60
2019-04-28T21:54:46.875Z,13.60
2019-04-28T21:57:15.666Z,13.60
2019-04-28T21:59:44.350Z,13.50
2019-04-28T22:02:13.085Z,13.40
2019-04-28T22:04:41.787Z,13.40
2019-04-28T22:07:10.446Z,13.40
2019-04-28T22:09:39.303Z,13.30
2019-04-28T22:12:07.947Z,13.20
2019-04-28T22:14:36.486Z,13.10
2019-04-28T22:17:05.319Z,13.20
2019-04-28T22:19:33.940Z,13.30
2019-04-28T22:22:02.563Z,13.30
2019-04-28T22:24:35.856Z,13.30
2019-04-28T22:27:04.684Z,13.30
2019-04-28T22:29:33.354Z,13.20
2019-04-28T22:32:02.185Z,13.30
2019-04-28T22:34:30.858Z,13.40
2019-04-28T22:37:08.469Z,13.40
2019-04-28T22:39:37.115Z,13.30
2019-04-28T22:42:05.851Z,13.20
2019-04-28T22:44:34.517Z,13.10
2019-04-28T22:47:22.458Z,13.10
2019-04-28T22:49:51.007Z,13.00
2019-04-28T22:52:19.610Z,13.00
2019-04-28T22:54:49.972Z,12.90
2019-04-28T22:57:20.296Z,12.90
2019-04-28T22:59:53.538Z,12.80
2019-04-28T23:02:23.840Z,12.90
2019-04-28T23:05:00.015Z,12.90
2019-04-28T23:07:28.758Z,12.80
2019-04-28T23:09:57.409Z,12.70
2019-04-28T23:12:27.188Z,12.70
2019-04-28T23:14:55.882Z,12.60
2019-04-28T23:17:24.631Z,12.60
2019-04-28T23:19:53.305Z,12.60
2019-04-28T23:22:23.662Z,12.60
2019-04-28T23:24:52.270Z,12.70
2019-04-28T23:27:20.812Z,12.70
2019-04-28T23:29:49.546Z,12.70
2019-04-28T23:32:19.622Z,12.60
2019-04-28T23:34:48.378Z,12.50
2019-04-28T23:37:36.245Z,12.30
2019-04-28T23:40:06.758Z,12.10
2019-04-28T23:42:37.067Z,12.10
2019-04-28T23:45:07.970Z,12.10
2019-04-28T23:47:36.594Z,12.10
2019-04-28T23:50:07.826Z,12.00
2019-04-28T23:52:43.659Z,12.00
2019-04-28T23:55:12.549Z,12.10
2019-04-28T23:57:41.417Z,11.90
